Date,TemperatureHighF,TemperatureAvgF,TemperatureLowF,DewpointHighF,DewpointAvgF,DewpointLowF,HumidityHigh,HumidityAvg,HumidityLow,PressureMaxIn,PressureMinIn,WindSpeedMaxMPH,WindSpeedAvgMPH,GustSpeedMaxMPH,PrecipitationSumIn
2013-2-1,58,47,37,35,28,17,74,50,24,30.34,30.15,5,2,13,0.01
2013-2-2,57,42,30,42,32,18,94,66,46,30.35,30.09,5,1,10,0.00
2013-2-3,60,50,41,41,35,32,95,61,35,30.09,29.91,5,2,12,0.00
2013-2-4,56,44,32,40,35,30,94,72,43,30.13,30.02,3,1,9,0.00
2013-2-5,67,50,36,51,44,35,99,81,48,30.06,29.94,4,1,13,0.00
2013-2-6,69,55,46,55,50,45,99,83,49,30.16,30.01,5,1,9,0.00
2013-2-7,59,54,47,57,53,46,99,96,90,30.14,29.70,6,2,16,1.44
2013-2-8,63,55,49,57,51,47,99,88,66,30.03,29.69,4,1,13,0.55
2013-2-9,59,49,38,48,36,26,98,66,28,30.32,30.03,9,2,16,0.00
2013-2-10,64,51,38,57,46,37,99,85,64,30.37,30.17,7,2,16,0.00
2013-2-11,65,62,60,64,61,57,99,95,85,30.21,30.04,5,2,9,1.40
2013-2-12,60,57,51,60,55,49,100,95,76,30.10,29.86,4,1,9,2.23
2013-2-13,72,60,50,67,56,49,100,87,58,29.86,29.67,6,2,14,1.85
2013-2-14,54,50,43,50,43,39,96,79,57,30.06,29.85,6,1,12,0.01
2013-2-15,59,47,38,45,42,37,99,83,56,30.09,29.96,5,1,10,0.00
2013-2-16,55,43,37,46,40,31,99,89,64,30.02,29.82,5,1,17,0.03
2013-2-17,46,37,30,32,22,13,84,58,27,30.30,30.02,6,2,16,0.03
2013-2-18,52,39,27,34,27,21,93,66,31,30.41,30.24,6,1,12,0.00
2013-2-19,66,51,37,57,48,34,99,90,58,30.24,29.96,6,2,14,0.19
2013-2-20,56,46,34,48,37,29,99,74,36,30.14,30.03,5,1,12,0.02
2013-2-21,60,48,37,49,42,36,99,81,53,30.16,30.08,5,1,12,0.01
2013-2-22,65,56,50,64,53,45,98,88,74,30.17,30.02,7,3,21,0.57
2013-2-23,61,53,46,61,52,45,100,99,97,30.04,29.78,4,1,10,2.62
2013-2-24,65,55,48,56,52,47,100,89,53,29.98,29.76,6,1,10,0.30
2013-2-25,52,48,43,50,47,41,100,95,86,30.06,29.92,7,3,17,0.31
2013-2-26,72,62,48,68,60,47,100,92,71,29.93,29.57,9,4,26,0.85
2013-2-27,62,54,48,54,45,41,88,73,57,29.89,29.68,4,2,9,0.01
2013-2-28,61,53,45,44,38,33,85,61,35,29.88,29.77,5,2,14,0.00